Time;durP1;ratioP1;P1;durP2;ratioP2;P2;SDS_P1;SDS_P2;PMS_P1;PMS_P2;Temp;Humidity;BMP_temperature;BMP_pressure;BME280_temperature;BME280_humidity;BME280_pressure;Samples;Min_cycle;Max_cycle;Signal;HPM_P1;HPM_P2
2022/07/13 00:01:30;;;;;;;5.75;2.53;;;;;;;;;;5073887;28;20059;-57
2022/07/13 00:03:56;;;;;;;2.72;1.85;;;;;;;;;;5075082;28;20036;-56
2022/07/13 00:06:22;;;;;;;5.75;2.58;;;;;;;;;;5075100;28;20032;-56
2022/07/13 00:08:48;;;;;;;3.45;2.20;;;;;;;;;;5075110;28;20024;-57
2022/07/13 00:11:15;;;;;;;3.60;2.40;;;;;;;;;;5074674;28;20031;-56
2022/07/13 00:13:41;;;;;;;2.55;1.90;;;;;;;;;;5074883;28;20033;-56
2022/07/13 00:16:07;;;;;;;5.13;2.70;;;;;;;;;;5075197;28;20036;-57
2022/07/13 00:18:33;;;;;;;3.30;2.40;;;;;;;;;;5074823;28;20033;-56
2022/07/13 00:20:59;;;;;;;5.18;2.38;;;;;;;;;;5074820;28;20128;-56
2022/07/13 00:23:25;;;;;;;7.95;2.50;;;;;;;;;;5074986;28;20036;-56
2022/07/13 00:25:51;;;;;;;4.03;3.13;;;;;;;;;;5074228;28;20032;-57
2022/07/13 00:28:17;;;;;;;3.72;2.20;;;;;;;;;;5074342;28;20498;-56
2022/07/13 00:30:44;;;;;;;4.82;2.70;;;;;;;;;;5073388;28;20082;-56
2022/07/13 00:33:10;;;;;;;4.60;2.50;;;;;;;;;;5073409;28;20510;-56
2022/07/13 00:35:36;;;;;;;3.65;2.42;;;;;;;;;;5074415;28;20033;-56
2022/07/13 00:38:02;;;;;;;5.45;2.38;;;;;;;;;;5072794;28;20036;-57
2022/07/13 00:40:28;;;;;;;6.28;2.42;;;;;;;;;;5074499;28;20465;-56
2022/07/13 00:42:57;;;;;;;6.85;2.60;;;;;;;;;;5074370;28;20020;-57
2022/07/13 00:45:23;;;;;;;7.47;2.25;;;;;;;;;;5074503;28;20089;-57
2022/07/13 00:47:49;;;;;;;3.47;2.45;;;;;;;;;;5072651;28;20043;-57
2022/07/13 00:50:16;;;;;;;4.45;2.25;;;;;;;;;;5073017;28;20091;-57
2022/07/13 00:52:42;;;;;;;5.30;2.58;;;;;;;;;;5073933;28;20044;-57
2022/07/13 00:55:09;;;;;;;4.25;2.20;;;;;;;;;;5073786;28;20457;-56
2022/07/13 00:57:37;;;;;;;4.72;2.58;;;;;;;;;;5073009;28;20111;-57
2022/07/13 01:00:08;;;;;;;4.50;2.33;;;;;;;;;;5074208;28;20025;-57
2022/07/13 01:02:36;;;;;;;5.47;2.60;;;;;;;;;;5074091;28;20052;-57
2022/07/13 01:05:02;;;;;;;6.35;2.70;;;;;;;;;;5072432;28;20082;-57
2022/07/13 01:07:30;;;;;;;9.98;2.72;;;;;;;;;;5073839;28;20035;-59
2022/07/13 01:09:56;;;;;;;2.80;2.47;;;;;;;;;;5073900;28;20100;-59
2022/07/13 01:12:22;;;;;;;3.05;2.50;;;;;;;;;;5074034;28;20033;-59
2022/07/13 01:14:48;;;;;;;4.28;2.45;;;;;;;;;;5072078;28;20036;-59
2022/07/13 01:17:15;;;;;;;4.47;2.53;;;;;;;;;;5072979;28;20043;-59
2022/07/13 01:19:41;;;;;;;6.10;2.47;;;;;;;;;;5073736;28;20040;-59
2022/07/13 01:22:08;;;;;;;7.45;3.17;;;;;;;;;;5073352;28;20028;-59
2022/07/13 01:24:34;;;;;;;5.47;2.38;;;;;;;;;;5072534;28;20082;-59
2022/07/13 01:27:01;;;;;;;4.68;2.20;;;;;;;;;;5073389;28;20082;-59
2022/07/13 01:29:27;;;;;;;3.53;2.35;;;;;;;;;;5073883;28;20029;-59
2022/07/13 01:31:59;;;;;;;3.47;2.55;;;;;;;;;;5072047;28;20162;-59
2022/07/13 01:34:25;;;;;;;5.85;2.42;;;;;;;;;;5072410;28;20039;-59
2022/07/13 01:36:51;;;;;;;3.88;2.35;;;;;;;;;;5071594;28;20029;-59
2022/07/13 01:39:17;;;;;;;5.65;2.50;;;;;;;;;;5073475;28;20475;-59
2022/07/13 01:41:43;;;;;;;7.70;2.58;;;;;;;;;;5073298;28;20032;-59
2022/07/13 01:44:12;;;;;;;5.03;2.65;;;;;;;;;;5072137;28;20107;-59
2022/07/13 01:46:38;;;;;;;8.93;2.88;;;;;;;;;;5072211;28;20081;-59
2022/07/13 01:49:04;;;;;;;8.57;2.45;;;;;;;;;;5071971;28;20104;-60
2022/07/13 01:51:30;;;;;;;6.05;2.40;;;;;;;;;;5071438;28;20024;-59
2022/07/13 01:53:56;;;;;;;4.07;2.53;;;;;;;;;;5072961;28;20021;-59
2022/07/13 01:56:22;;;;;;;3.08;2.60;;;;;;;;;;5071915;28;20031;-59
2022/07/13 01:58:48;;;;;;;5.13;2.60;;;;;;;;;;5071462;28;20032;-59
2022/07/13 02:01:15;;;;;;;3.60;2.97;;;;;;;;;;5071721;28;20039;-59
2022/07/13 02:03:42;;;;;;;7.18;2.97;;;;;;;;;;5071628;28;20474;-59
2022/07/13 02:06:10;;;;;;;3.42;2.40;;;;;;;;;;5070960;28;20474;-59
2022/07/13 02:08:36;;;;;;;5.00;2.50;;;;;;;;;;5071773;28;20540;-59
2022/07/13 02:11:04;;;;;;;5.40;2.60;;;;;;;;;;5071050;28;20397;-59
2022/07/13 02:13:30;;;;;;;7.72;2.20;;;;;;;;;;5072986;28;20487;-59
2022/07/13 02:15:57;;;;;;;6.47;2.80;;;;;;;;;;5072664;28;20086;-59
2022/07/13 02:18:24;;;;;;;6.30;2.30;;;;;;;;;;5071156;28;20029;-59
2022/07/13 02:20:50;;;;;;;3.97;2.10;;;;;;;;;;5070984;28;20402;-59
2022/07/13 02:23:16;;;;;;;2.47;2.25;;;;;;;;;;5072611;28;20028;-59
2022/07/13 02:25:43;;;;;;;3.13;2.40;;;;;;;;;;5071267;28;20115;-59
2022/07/13 02:28:11;;;;;;;3.05;2.22;;;;;;;;;;5071157;28;20401;-59
2022/07/13 02:30:38;;;;;;;5.88;2.90;;;;;;;;;;5054610;28;20082;-59
2022/07/13 02:33:04;;;;;;;6.25;2.63;;;;;;;;;;5072103;28;20028;-59
2022/07/13 02:35:30;;;;;;;5.70;2.70;;;;;;;;;;5071854;28;20029;-59
2022/07/13 02:37:58;;;;;;;3.67;2.42;;;;;;;;;;5070876;28;20478;-59
2022/07/13 02:40:26;;;;;;;7.50;2.58;;;;;;;;;;5071159;28;20036;-59
2022/07/13 02:42:55;;;;;;;8.65;2.83;;;;;;;;;;5070913;28;20449;-59
2022/07/13 02:45:21;;;;;;;2.80;2.45;;;;;;;;;;5072121;28;20074;-59
2022/07/13 02:47:48;;;;;;;4.05;2.15;;;;;;;;;;5070788;28;20035;-59
2022/07/13 02:50:15;;;;;;;6.13;2.60;;;;;;;;;;5070044;28;20139;-59
2022/07/13 02:52:42;;;;;;;4.15;2.28;;;;;;;;;;5070821;28;20401;-59
2022/07/13 02:55:08;;;;;;;4.68;2.55;;;;;;;;;;5070427;28;20029;-59
2022/07/13 02:57:35;;;;;;;5.78;2.78;;;;;;;;;;5070813;28;20051;-59
2022/07/13 03:00:04;;;;;;;7.82;2.75;;;;;;;;;;5070579;28;20029;-59
2022/07/13 03:02:30;;;;;;;4.78;2.20;;;;;;;;;;5072173;28;20040;-59
2022/07/13 03:04:57;;;;;;;6.57;3.08;;;;;;;;;;5070093;28;20020;-59
2022/07/13 03:07:24;;;;;;;2.80;2.38;;;;;;;;;;5070788;28;20021;-59
2022/07/13 03:09:52;;;;;;;2.70;2.05;;;;;;;;;;5070465;28;20036;-59
2022/07/13 03:12:18;;;;;;;5.97;2.35;;;;;;;;;;5070577;28;20032;-59
2022/07/13 03:14:45;;;;;;;4.18;2.50;;;;;;;;;;5070895;28;20035;-59
2022/07/13 03:17:11;;;;;;;3.60;2.40;;;;;;;;;;5071654;28;20028;-59
2022/07/13 03:19:37;;;;;;;4.32;2.45;;;;;;;;;;5075158;28;20025;-59
2022/07/13 03:22:04;;;;;;;4.80;2.33;;;;;;;;;;5078372;28;20432;-59
2022/07/13 03:24:31;;;;;;;5.13;2.42;;;;;;;;;;5077389;28;20115;-59
2022/07/13 03:26:58;;;;;;;4.93;2.70;;;;;;;;;;5076611;28;20028;-59
2022/07/13 03:29:26;;;;;;;5.15;2.28;;;;;;;;;;5077283;28;20055;-59
2022/07/13 03:31:52;;;;;;;2.53;2.05;;;;;;;;;;5077075;28;20076;-59
2022/07/13 03:34:19;;;;;;;3.65;2.58;;;;;;;;;;5076671;28;20509;-59
2022/07/13 03:36:46;;;;;;;3.95;2.20;;;;;;;;;;5077113;28;20063;-59
2022/07/13 03:39:12;;;;;;;8.18;2.00;;;;;;;;;;5076944;28;20024;-59
2022/07/13 03:41:39;;;;;;;3.60;2.60;;;;;;;;;;5077109;28;20082;-58
2022/07/13 03:44:06;;;;;;;5.35;2.45;;;;;;;;;;5076909;28;20036;-59
2022/07/13 03:46:34;;;;;;;3.33;2.30;;;;;;;;;;5076828;28;20417;-59
2022/07/13 03:49:00;;;;;;;3.15;2.33;;;;;;;;;;5076819;28;20043;-59
2022/07/13 03:51:28;;;;;;;5.15;2.30;;;;;;;;;;5077086;28;20028;-59
2022/07/13 03:53:54;;;;;;;5.22;2.72;;;;;;;;;;5077734;28;20048;-59
2022/07/13 03:56:20;;;;;;;5.20;2.30;;;;;;;;;;5076811;28;20494;-59
2022/07/13 03:58:46;;;;;;;3.97;2.35;;;;;;;;;;5077125;28;20390;-59
2022/07/13 04:01:12;;;;;;;4.85;2.75;;;;;;;;;;5074797;28;20038;-59
2022/07/13 04:03:38;;;;;;;5.20;2.30;;;;;;;;;;5073691;28;20444;-59
2022/07/13 04:06:05;;;;;;;5.10;2.40;;;;;;;;;;5076193;28;20036;-59
2022/07/13 04:08:32;;;;;;;5.78;2.63;;;;;;;;;;5076820;28;20425;-59
2022/07/13 04:10:58;;;;;;;4.90;2.67;;;;;;;;;;5074252;28;20016;-59
2022/07/13 04:13:24;;;;;;;3.88;2.40;;;;;;;;;;5076105;28;20516;-59
2022/07/13 04:15:51;;;;;;;4.80;2.63;;;;;;;;;;5076600;28;20028;-59
2022/07/13 04:18:17;;;;;;;4.70;2.72;;;;;;;;;;5077744;28;20024;-59
2022/07/13 04:20:43;;;;;;;2.55;2.20;;;;;;;;;;5076613;28;20086;-59
2022/07/13 04:23:09;;;;;;;3.15;2.42;;;;;;;;;;5077841;28;20041;-59
2022/07/13 04:25:36;;;;;;;2.92;2.25;;;;;;;;;;5076780;28;20577;-59
2022/07/13 04:28:03;;;;;;;3.28;1.98;;;;;;;;;;5076746;28;20075;-59
2022/07/13 04:30:29;;;;;;;6.30;2.67;;;;;;;;;;5072824;28;20066;-59
2022/07/13 04:32:58;;;;;;;6.03;2.40;;;;;;;;;;5070629;28;20021;-59
2022/07/13 04:35:24;;;;;;;10.45;2.55;;;;;;;;;;5072217;28;20037;-59
2022/07/13 04:37:52;;;;;;;3.88;2.53;;;;;;;;;;5073377;28;20502;-59
2022/07/13 04:40:19;;;;;;;8.00;2.72;;;;;;;;;;5072118;28;20051;-66
2022/07/13 04:42:45;;;;;;;4.20;2.40;;;;;;;;;;5073339;28;20482;-66
2022/07/13 04:45:13;;;;;;;6.97;2.47;;;;;;;;;;5072597;28;20028;-65
2022/07/13 04:47:40;;;;;;;4.95;3.03;;;;;;;;;;5073528;28;20062;-65
2022/07/13 04:50:08;;;;;;;3.50;2.35;;;;;;;;;;5055534;28;20074;-65
2022/07/13 04:52:34;;;;;;;2.78;2.25;;;;;;;;;;5072085;28;20029;-65
2022/07/13 04:55:00;;;;;;;3.13;2.40;;;;;;;;;;5067070;28;20043;-65
2022/07/13 04:57:26;;;;;;;8.60;2.80;;;;;;;;;;5071855;28;20078;-65
2022/07/13 04:59:53;;;;;;;4.72;2.63;;;;;;;;;;5072785;28;20090;-65
2022/07/13 05:02:19;;;;;;;6.93;3.05;;;;;;;;;;5070753;28;20025;-65
2022/07/13 05:04:46;;;;;;;3.53;2.40;;;;;;;;;;5073296;28;20060;-65
2022/07/13 05:07:12;;;;;;;7.78;2.75;;;;;;;;;;5072860;28;20078;-65
2022/07/13 05:09:38;;;;;;;4.13;2.60;;;;;;;;;;5070566;28;20503;-65
2022/07/13 05:12:04;;;;;;;5.97;2.58;;;;;;;;;;5072128;28;20029;-65
2022/07/13 05:14:31;;;;;;;3.20;2.50;;;;;;;;;;5072331;28;20398;-65
2022/07/13 05:16:57;;;;;;;8.32;3.15;;;;;;;;;;5072440;28;20067;-65
2022/07/13 05:19:24;;;;;;;4.13;2.75;;;;;;;;;;5055918;28;20020;-65
2022/07/13 05:21:51;;;;;;;4.72;2.75;;;;;;;;;;5071878;28;20028;-65
2022/07/13 05:24:17;;;;;;;9.18;2.50;;;;;;;;;;5069429;28;20375;-65
2022/07/13 05:26:43;;;;;;;5.30;2.90;;;;;;;;;;5069900;28;20481;-65
2022/07/13 05:29:09;;;;;;;3.90;2.35;;;;;;;;;;5069879;28;20075;-65
2022/07/13 05:31:37;;;;;;;4.97;3.10;;;;;;;;;;5070233;28;20021;-65
2022/07/13 05:34:05;;;;;;;6.00;3.38;;;;;;;;;;5070597;28;20027;-65
2022/07/13 05:36:36;;;;;;;4.43;2.85;;;;;;;;;;5070328;28;20029;-65
2022/07/13 05:39:03;;;;;;;4.25;2.10;;;;;;;;;;5069635;28;20099;-66
2022/07/13 05:41:29;;;;;;;4.50;2.53;;;;;;;;;;5067654;28;20025;-65
2022/07/13 05:43:55;;;;;;;5.00;2.58;;;;;;;;;;5068443;28;20063;-65
2022/07/13 05:46:23;;;;;;;5.13;3.22;;;;;;;;;;5069394;28;20035;-66
2022/07/13 05:48:50;;;;;;;3.22;2.42;;;;;;;;;;5071144;28;20020;-65
2022/07/13 05:51:16;;;;;;;6.05;2.58;;;;;;;;;;5069127;28;20019;-65
2022/07/13 05:53:42;;;;;;;6.20;2.45;;;;;;;;;;5069800;28;20117;-65
2022/07/13 05:56:09;;;;;;;11.73;2.90;;;;;;;;;;5069509;28;20090;-65
2022/07/13 05:58:35;;;;;;;5.57;2.90;;;;;;;;;;5071500;28;20498;-66
2022/07/13 06:01:02;;;;;;;9.45;2.83;;;;;;;;;;5070591;28;20024;-65
2022/07/13 06:03:28;;;;;;;5.68;2.92;;;;;;;;;;5072267;28;20029;-66
2022/07/13 06:05:54;;;;;;;10.90;3.13;;;;;;;;;;5072007;28;20486;-65
2022/07/13 06:08:20;;;;;;;7.40;3.10;;;;;;;;;;5071556;28;20020;-65
2022/07/13 06:10:46;;;;;;;6.45;2.58;;;;;;;;;;5072056;28;20016;-65
2022/07/13 06:13:12;;;;;;;7.25;2.60;;;;;;;;;;5071647;28;20039;-65
2022/07/13 06:15:38;;;;;;;9.75;2.72;;;;;;;;;;5068995;28;20033;-66
2022/07/13 06:18:05;;;;;;;8.52;3.05;;;;;;;;;;5070067;28;20046;-65
2022/07/13 06:20:31;;;;;;;10.35;2.92;;;;;;;;;;5068716;28;20078;-65
2022/07/13 06:23:09;;;;;;;8.90;3.00;;;;;;;;;;5070318;28;20410;-65
2022/07/13 06:25:36;;;;;;;9.60;3.03;;;;;;;;;;5069488;28;20063;-65
2022/07/13 06:28:02;;;;;;;8.60;2.60;;;;;;;;;;5066553;28;20438;-65
2022/07/13 06:30:28;;;;;;;10.80;3.20;;;;;;;;;;5064950;28;20048;-65
2022/07/13 06:32:54;;;;;;;19.25;4.00;;;;;;;;;;5066411;28;20406;-66
2022/07/13 06:35:20;;;;;;;6.25;2.88;;;;;;;;;;5067403;28;20036;-65
2022/07/13 06:37:46;;;;;;;7.07;3.15;;;;;;;;;;5069665;28;20024;-65
2022/07/13 06:40:13;;;;;;;13.43;3.33;;;;;;;;;;5071080;28;20482;-65
2022/07/13 06:42:39;;;;;;;5.75;4.57;;;;;;;;;;5070515;28;20019;-65
2022/07/13 06:45:05;;;;;;;8.23;4.00;;;;;;;;;;5070129;28;20016;-66
2022/07/13 06:47:32;;;;;;;8.55;4.03;;;;;;;;;;5070818;28;20506;-65
2022/07/13 06:49:58;;;;;;;8.32;3.55;;;;;;;;;;5069548;28;20013;-65
2022/07/13 06:52:24;;;;;;;10.05;3.78;;;;;;;;;;5069327;28;20032;-65
2022/07/13 06:54:50;;;;;;;9.05;4.75;;;;;;;;;;5070581;28;20466;-65
2022/07/13 06:57:16;;;;;;;14.85;4.65;;;;;;;;;;5066451;28;20028;-65
2022/07/13 06:59:42;;;;;;;13.15;5.30;;;;;;;;;;5066405;28;20456;-66
2022/07/13 07:02:08;;;;;;;12.35;5.97;;;;;;;;;;5067556;28;20027;-66
2022/07/13 07:04:35;;;;;;;10.38;5.43;;;;;;;;;;5064723;28;20078;-65
2022/07/13 07:07:01;;;;;;;11.38;8.38;;;;;;;;;;5064027;28;20486;-65
2022/07/13 07:09:27;;;;;;;16.08;9.75;;;;;;;;;;5068138;28;20029;-65
2022/07/13 07:11:54;;;;;;;17.90;9.25;;;;;;;;;;5070208;28;20478;-65
2022/07/13 07:14:20;;;;;;;15.70;10.52;;;;;;;;;;5068786;28;20017;-65
2022/07/13 07:16:47;;;;;;;13.85;10.43;;;;;;;;;;5068238;28;20038;-65
2022/07/13 07:19:13;;;;;;;17.85;9.20;;;;;;;;;;5073098;28;20017;-65
2022/07/13 07:21:40;;;;;;;18.73;9.52;;;;;;;;;;5068113;28;20036;-65
2022/07/13 07:24:06;;;;;;;14.32;9.35;;;;;;;;;;5070322;28;20032;-65
2022/07/13 07:26:33;;;;;;;14.85;8.90;;;;;;;;;;5068714;28;20033;-65
2022/07/13 07:28:59;;;;;;;17.45;9.35;;;;;;;;;;5068355;28;20517;-65
2022/07/13 07:31:26;;;;;;;12.50;9.38;;;;;;;;;;5069275;28;20105;-65
2022/07/13 07:33:52;;;;;;;14.27;9.48;;;;;;;;;;5070029;28;20087;-65
2022/07/13 07:36:18;;;;;;;12.77;8.50;;;;;;;;;;5065892;28;20433;-65
2022/07/13 07:38:45;;;;;;;13.85;8.88;;;;;;;;;;5067942;28;20417;-65
2022/07/13 07:41:11;;;;;;;12.43;8.40;;;;;;;;;;5064291;28;20446;-65
2022/07/13 07:43:38;;;;;;;12.07;7.95;;;;;;;;;;5067778;28;20555;-65
2022/07/13 07:46:04;;;;;;;7.85;5.70;;;;;;;;;;5067583;28;20082;-65
2022/07/13 07:48:30;;;;;;;9.38;5.30;;;;;;;;;;5080808;28;20056;-65
2022/07/13 07:50:57;;;;;;;8.95;5.55;;;;;;;;;;5047202;28;21050;-62
2022/07/13 07:53:23;;;;;;;8.10;4.68;;;;;;;;;;5069213;28;20502;-65
2022/07/13 07:55:49;;;;;;;10.68;4.40;;;;;;;;;;5069105;28;20028;-65
2022/07/13 07:58:15;;;;;;;8.38;4.00;;;;;;;;;;5069078;28;20032;-65
2022/07/13 08:00:42;;;;;;;5.28;2.60;;;;;;;;;;5065183;28;20067;-66
2022/07/13 08:03:08;;;;;;;7.35;2.10;;;;;;;;;;5067289;28;20033;-65
2022/07/13 08:05:34;;;;;;;4.35;2.30;;;;;;;;;;5069750;28;20032;-65
2022/07/13 08:08:01;;;;;;;3.80;2.05;;;;;;;;;;5071240;28;20140;-65
2022/07/13 08:10:27;;;;;;;5.20;2.00;;;;;;;;;;5070345;28;20044;-65
2022/07/13 08:12:53;;;;;;;3.67;2.08;;;;;;;;;;5073497;28;20019;-65
2022/07/13 08:15:20;;;;;;;3.92;2.30;;;;;;;;;;5074784;28;20078;-65
2022/07/13 08:17:47;;;;;;;3.97;1.92;;;;;;;;;;5072551;28;20406;-65
2022/07/13 08:20:13;;;;;;;3.25;1.70;;;;;;;;;;5073739;28;20044;-65
2022/07/13 08:22:39;;;;;;;5.13;2.00;;;;;;;;;;5073176;28;20025;-65
2022/07/13 08:25:05;;;;;;;5.53;2.30;;;;;;;;;;5068662;28;20074;-65
2022/07/13 08:27:32;;;;;;;3.63;1.80;;;;;;;;;;5071962;28;20051;-65
2022/07/13 08:29:59;;;;;;;3.20;1.45;;;;;;;;;;5070318;28;20398;-65
2022/07/13 08:32:25;;;;;;;3.20;1.45;;;;;;;;;;5069268;28;20383;-65
2022/07/13 08:40:22;;;;;;;1.80;1.35;;;;;;;;;;5068433;28;20094;-63
2022/07/13 08:42:48;;;;;;;3.45;1.40;;;;;;;;;;5073349;28;20086;-62
2022/07/13 08:45:14;;;;;;;5.70;1.80;;;;;;;;;;5072913;28;20119;-63
2022/07/13 08:47:42;;;;;;;5.03;1.38;;;;;;;;;;5072582;28;20033;-63
2022/07/13 08:50:09;;;;;;;1.90;1.23;;;;;;;;;;5071830;28;20047;-63
2022/07/13 08:52:37;;;;;;;1.75;1.25;;;;;;;;;;5072359;28;20119;-63
2022/07/13 08:55:04;;;;;;;4.57;2.13;;;;;;;;;;5072308;28;20021;-63
2022/07/13 08:57:31;;;;;;;5.75;1.92;;;;;;;;;;5072731;28;20029;-63
2022/07/13 08:59:57;;;;;;;5.03;1.83;;;;;;;;;;5072843;28;20386;-63
2022/07/13 09:02:23;;;;;;;3.92;1.40;;;;;;;;;;5071747;28;20039;-63
2022/07/13 09:04:50;;;;;;;4.88;1.63;;;;;;;;;;5072379;28;20126;-63
2022/07/13 09:07:16;;;;;;;3.95;1.50;;;;;;;;;;5072651;28;20027;-63
2022/07/13 09:09:42;;;;;;;3.35;1.40;;;;;;;;;;5072280;28;20039;-63
2022/07/13 09:12:14;;;;;;;2.72;1.30;;;;;;;;;;5075883;28;20519;-63
2022/07/13 09:14:40;;;;;;;1.90;1.17;;;;;;;;;;5072664;28;20114;-63
2022/07/13 09:17:06;;;;;;;3.85;1.40;;;;;;;;;;5071042;28;20025;-63
2022/07/13 09:19:37;;;;;;;3.15;1.55;;;;;;;;;;5080695;28;20032;-63
2022/07/13 09:22:22;;;;;;;2.75;1.48;;;;;;;;;;5072567;28;20040;-63
2022/07/13 09:24:50;;;;;;;2.00;1.10;;;;;;;;;;5072325;28;20191;-64
2022/07/13 09:27:17;;;;;;;4.82;1.30;;;;;;;;;;5072776;28;20465;-64
2022/07/13 09:29:43;;;;;;;2.75;1.27;;;;;;;;;;5073341;28;20035;-64
2022/07/13 09:32:14;;;;;;;2.90;1.45;;;;;;;;;;5072649;28;20045;-64
2022/07/13 09:34:53;;;;;;;3.67;1.40;;;;;;;;;;5073010;28;20029;-64
2022/07/13 09:37:27;;;;;;;2.88;1.30;;;;;;;;;;5072763;28;20063;-65
2022/07/13 09:39:57;;;;;;;2.40;1.33;;;;;;;;;;5073198;28;20494;-65
2022/07/13 09:42:27;;;;;;;2.33;1.13;;;;;;;;;;5072582;28;20115;-66
2022/07/13 09:47:42;;;;;;;2.20;1.20;;;;;;;;;;5072829;28;20036;-65
2022/07/13 09:50:08;;;;;;;4.53;1.33;;;;;;;;;;5072333;28;20483;-66
2022/07/13 09:52:35;;;;;;;3.72;1.42;;;;;;;;;;5072815;28;20031;-66
2022/07/13 09:55:04;;;;;;;6.35;1.23;;;;;;;;;;5073032;28;20025;-65
2022/07/13 09:57:32;;;;;;;2.45;1.27;;;;;;;;;;5072392;28;20114;-65
2022/07/13 09:59:58;;;;;;;2.72;1.27;;;;;;;;;;5071426;28;20032;-65
2022/07/13 10:02:26;;;;;;;7.57;1.40;;;;;;;;;;5071655;28;20508;-65
2022/07/13 10:04:52;;;;;;;2.30;1.20;;;;;;;;;;5072064;28;20490;-65
2022/07/13 10:07:18;;;;;;;4.20;1.50;;;;;;;;;;5071110;28;20024;-64
2022/07/13 10:09:45;;;;;;;2.40;1.20;;;;;;;;;;5071318;28;20394;-65
2022/07/13 10:12:11;;;;;;;5.60;1.58;;;;;;;;;;5072393;28;20024;-65
2022/07/13 10:14:39;;;;;;;4.40;1.63;;;;;;;;;;5056464;28;20339;-64
2022/07/13 10:17:06;;;;;;;3.70;1.30;;;;;;;;;;5072349;28;20025;-64
2022/07/13 10:19:33;;;;;;;5.88;1.23;;;;;;;;;;5071732;28;20060;-64
2022/07/13 10:22:11;;;;;;;4.45;1.30;;;;;;;;;;5072570;28;20548;-64
2022/07/13 10:24:37;;;;;;;5.28;1.83;;;;;;;;;;5072528;28;20111;-64
2022/07/13 10:27:27;;;;;;;5.90;1.33;;;;;;;;;;5072315;28;20017;-63
2022/07/13 10:29:54;;;;;;;7.28;1.55;;;;;;;;;;5063988;28;20037;-63
2022/07/13 10:32:22;;;;;;;1.20;0.90;;;;;;;;;;5072295;28;20040;-64
2022/07/13 10:35:09;;;;;;;7.82;1.10;;;;;;;;;;5072080;28;20104;-64
2022/07/13 10:37:53;;;;;;;3.72;1.00;;;;;;;;;;5071990;28;20096;-64
2022/07/13 10:40:21;;;;;;;2.28;1.20;;;;;;;;;;5072018;28;20111;-64
2022/07/13 10:43:04;;;;;;;1.55;1.10;;;;;;;;;;5072175;28;20501;-63
2022/07/13 10:45:33;;;;;;;2.80;1.00;;;;;;;;;;5071941;28;20036;-64
2022/07/13 10:48:04;;;;;;;4.78;1.30;;;;;;;;;;5072068;28;20116;-63
2022/07/13 10:50:36;;;;;;;4.07;1.10;;;;;;;;;;5071961;28;20028;-64
2022/07/13 10:53:03;;;;;;;4.93;1.08;;;;;;;;;;5072301;28;20540;-64
2022/07/13 10:55:30;;;;;;;2.40;1.08;;;;;;;;;;5071686;28;20078;-64
2022/07/13 10:57:56;;;;;;;2.30;0.90;;;;;;;;;;5072143;28;20375;-63
2022/07/13 11:00:37;;;;;;;2.80;1.00;;;;;;;;;;5071745;28;20375;-63
2022/07/13 11:03:05;;;;;;;3.17;0.80;;;;;;;;;;5071670;28;20029;-63
2022/07/13 11:05:35;;;;;;;1.63;1.00;;;;;;;;;;5071654;28;20028;-63
2022/07/13 11:08:14;;;;;;;2.92;1.00;;;;;;;;;;5070162;28;20028;-64
2022/07/13 11:10:41;;;;;;;1.30;0.90;;;;;;;;;;5068733;28;20078;-64
2022/07/13 11:13:09;;;;;;;5.57;0.98;;;;;;;;;;5071264;28;20032;-64
2022/07/13 11:15:44;;;;;;;2.13;1.17;;;;;;;;;;5071409;28;20028;-64
2022/07/13 11:18:23;;;;;;;4.25;1.02;;;;;;;;;;5070741;28;20024;-64
2022/07/13 11:20:58;;;;;;;1.77;1.20;;;;;;;;;;5052016;28;20033;-64
2022/07/13 11:26:31;;;;;;;3.88;1.30;;;;;;;;;;5053868;28;20036;-64
2022/07/13 11:29:06;;;;;;;1.98;0.95;;;;;;;;;;5071660;28;20040;-67
2022/07/13 11:31:33;;;;;;;6.75;1.20;;;;;;;;;;5051229;28;20047;-66
2022/07/13 11:33:59;;;;;;;1.00;0.90;;;;;;;;;;5051934;28;20017;-66
2022/07/13 11:36:25;;;;;;;2.97;1.38;;;;;;;;;;5051289;28;20078;-65
2022/07/13 11:38:52;;;;;;;1.33;1.08;;;;;;;;;;5051776;28;20063;-64
2022/07/13 11:41:19;;;;;;;1.95;1.00;;;;;;;;;;5055156;28;20028;-64
2022/07/13 11:43:46;;;;;;;3.30;1.10;;;;;;;;;;5055530;28;20056;-64
2022/07/13 11:46:12;;;;;;;2.10;1.23;;;;;;;;;;5055271;28;20029;-64
2022/07/13 11:48:38;;;;;;;2.45;1.42;;;;;;;;;;5055538;28;20108;-63
2022/07/13 11:51:10;;;;;;;2.72;1.05;;;;;;;;;;5055527;28;20037;-64
2022/07/13 11:53:36;;;;;;;2.50;1.17;;;;;;;;;;5055372;28;20035;-64
2022/07/13 11:56:06;;;;;;;6.82;1.30;;;;;;;;;;5055426;28;20033;-64
2022/07/13 11:58:34;;;;;;;1.30;0.93;;;;;;;;;;5054908;28;20029;-64
2022/07/13 12:01:01;;;;;;;1.35;0.82;;;;;;;;;;5055258;28;20506;-63
2022/07/13 12:03:28;;;;;;;3.20;1.02;;;;;;;;;;5055303;28;20040;-64
2022/07/13 12:05:58;;;;;;;2.00;1.52;;;;;;;;;;5055208;28;20114;-64
2022/07/13 12:08:25;;;;;;;3.08;1.00;;;;;;;;;;5055042;28;20392;-64
2022/07/13 12:10:51;;;;;;;4.63;1.23;;;;;;;;;;5055116;28;20040;-64
2022/07/13 12:13:18;;;;;;;2.13;1.00;;;;;;;;;;5053865;28;20079;-65
2022/07/13 12:15:45;;;;;;;1.20;1.10;;;;;;;;;;5060051;28;20027;-64
2022/07/13 12:18:12;;;;;;;3.60;1.38;;;;;;;;;;5075162;28;20398;-64
2022/07/13 12:20:39;;;;;;;3.90;0.98;;;;;;;;;;5074736;28;20040;-64
2022/07/13 12:23:08;;;;;;;3.28;1.00;;;;;;;;;;5074808;28;20097;-64
2022/07/13 12:25:39;;;;;;;4.60;1.05;;;;;;;;;;5074657;28;20029;-64
2022/07/13 12:28:08;;;;;;;1.00;0.90;;;;;;;;;;5074840;28;20052;-64
2022/07/13 12:30:37;;;;;;;2.13;1.13;;;;;;;;;;5074314;28;20078;-64
2022/07/13 12:33:07;;;;;;;1.58;1.00;;;;;;;;;;5074807;28;20074;-64
2022/07/13 12:35:37;;;;;;;1.70;0.90;;;;;;;;;;5074506;28;20051;-64
2022/07/13 12:38:05;;;;;;;2.28;1.17;;;;;;;;;;5074999;28;20060;-64
2022/07/13 12:40:38;;;;;;;4.63;1.25;;;;;;;;;;5074249;28;20413;-64
2022/07/13 12:43:05;;;;;;;3.72;1.30;;;;;;;;;;5074474;28;20025;-64
2022/07/13 12:45:31;;;;;;;2.83;1.40;;;;;;;;;;5074505;28;20025;-64
2022/07/13 12:47:57;;;;;;;2.95;1.13;;;;;;;;;;5073160;28;20024;-64
2022/07/13 12:50:30;;;;;;;3.45;0.95;;;;;;;;;;5074386;28;20055;-64
2022/07/13 12:53:00;;;;;;;1.52;1.00;;;;;;;;;;5073529;28;20089;-64
2022/07/13 12:55:26;;;;;;;2.53;1.10;;;;;;;;;;5074179;28;20029;-64
2022/07/13 12:57:53;;;;;;;2.80;1.02;;;;;;;;;;5073825;28;20082;-64
2022/07/13 13:00:23;;;;;;;2.38;1.10;;;;;;;;;;5074284;28;20025;-64
2022/07/13 13:02:49;;;;;;;2.22;1.00;;;;;;;;;;5074261;28;20029;-64
2022/07/13 13:05:15;;;;;;;4.53;1.20;;;;;;;;;;5074170;28;20024;-64
2022/07/13 13:07:42;;;;;;;1.30;0.80;;;;;;;;;;5073704;28;20479;-64
2022/07/13 13:10:08;;;;;;;3.38;1.10;;;;;;;;;;5074301;28;20380;-64
2022/07/13 13:12:35;;;;;;;3.40;1.08;;;;;;;;;;5073439;28;20090;-64
2022/07/13 13:15:02;;;;;;;1.95;0.95;;;;;;;;;;5074074;28;20032;-64
2022/07/13 13:17:28;;;;;;;2.83;0.93;;;;;;;;;;5073768;28;20059;-64
2022/07/13 13:19:54;;;;;;;1.98;1.00;;;;;;;;;;5073855;28;20030;-64
2022/07/13 13:22:20;;;;;;;2.92;1.00;;;;;;;;;;5073907;28;20060;-64
2022/07/13 13:24:46;;;;;;;1.92;0.77;;;;;;;;;;5073521;28;20563;-64
2022/07/13 13:27:13;;;;;;;3.47;1.27;;;;;;;;;;5073402;28;20132;-64
2022/07/13 13:32:25;;;;;;;8.10;1.77;;;;;;;;;;5073634;28;20060;-64
2022/07/13 13:34:51;;;;;;;3.17;1.23;;;;;;;;;;5073714;28;20036;-64
2022/07/13 13:37:17;;;;;;;3.25;1.33;;;;;;;;;;5073679;28;20375;-64
2022/07/13 13:39:44;;;;;;;3.97;1.52;;;;;;;;;;5073241;28;20039;-64
2022/07/13 13:42:10;;;;;;;4.03;1.80;;;;;;;;;;5073262;28;20028;-64
2022/07/13 13:44:36;;;;;;;7.65;2.10;;;;;;;;;;5073174;28;20020;-64
2022/07/13 13:47:02;;;;;;;4.90;2.80;;;;;;;;;;5073375;28;20036;-64
2022/07/13 13:49:28;;;;;;;6.57;2.30;;;;;;;;;;5073176;28;20056;-64
2022/07/13 13:51:54;;;;;;;3.20;1.95;;;;;;;;;;5073034;28;20024;-64
2022/07/13 13:54:20;;;;;;;4.38;1.80;;;;;;;;;;5073240;28;20174;-64
2022/07/13 13:56:46;;;;;;;4.00;1.70;;;;;;;;;;5072568;28;20069;-64
2022/07/13 13:59:12;;;;;;;2.80;1.63;;;;;;;;;;5073124;28;20035;-64
2022/07/13 14:01:39;;;;;;;7.65;2.00;;;;;;;;;;5072823;28;20115;-63
2022/07/13 14:04:05;;;;;;;4.85;1.80;;;;;;;;;;5073236;28;20513;-64
2022/07/13 14:06:31;;;;;;;3.97;1.88;;;;;;;;;;5072737;28;20031;-64
2022/07/13 14:08:58;;;;;;;4.40;2.55;;;;;;;;;;5072839;28;20506;-64
2022/07/13 14:11:24;;;;;;;7.93;3.10;;;;;;;;;;5072653;28;20037;-64
2022/07/13 14:13:50;;;;;;;4.03;1.88;;;;;;;;;;5072590;28;20406;-64
2022/07/13 14:16:17;;;;;;;2.63;1.55;;;;;;;;;;5072778;28;20387;-64
2022/07/13 14:18:43;;;;;;;7.55;1.90;;;;;;;;;;5072722;28;20406;-64
2022/07/13 14:21:09;;;;;;;2.50;1.48;;;;;;;;;;5072797;28;20036;-64
2022/07/13 14:23:35;;;;;;;2.70;1.40;;;;;;;;;;5072528;28;20024;-64
2022/07/13 14:26:02;;;;;;;2.28;1.50;;;;;;;;;;5072364;28;20407;-64
2022/07/13 14:28:28;;;;;;;3.33;1.58;;;;;;;;;;5072292;28;20048;-64
2022/07/13 14:30:54;;;;;;;5.72;1.52;;;;;;;;;;5072389;28;20025;-64
2022/07/13 14:33:20;;;;;;;2.58;1.80;;;;;;;;;;5072716;28;20029;-64
2022/07/13 14:35:46;;;;;;;2.63;1.70;;;;;;;;;;5072205;28;20036;-64
2022/07/13 14:38:13;;;;;;;4.85;1.90;;;;;;;;;;5072562;28;20040;-64
2022/07/13 14:40:43;;;;;;;4.47;1.60;;;;;;;;;;5071838;28;20082;-64
2022/07/13 14:43:10;;;;;;;3.63;2.00;;;;;;;;;;5072490;28;20490;-64
2022/07/13 14:45:37;;;;;;;5.72;1.88;;;;;;;;;;5072190;28;20478;-64
2022/07/13 14:48:03;;;;;;;3.33;2.30;;;;;;;;;;5072231;28;20091;-64
2022/07/13 14:50:32;;;;;;;4.28;2.00;;;;;;;;;;5072555;28;20025;-64
2022/07/13 14:53:00;;;;;;;7.03;2.17;;;;;;;;;;5072155;28;20025;-64
2022/07/13 14:55:26;;;;;;;6.30;2.35;;;;;;;;;;5072294;28;20107;-64